Time;durP1;ratioP1;P1;durP2;ratioP2;P2;SDS_P1;SDS_P2;PMS_P1;PMS_P2;Temp;Humidity;BMP_temperature;BMP_pressure;BME280_temperature;BME280_humidity;BME280_pressure;Samples;Min_cycle;Max_cycle;Signal;HPM_P1;HPM_P2
2023/10/11 00:00:40;;;;;;;7.82;3.15;;;17.30;99.90;;;;;;5072840;28;20036;-51
2023/10/11 00:05:40;;;;;;;7.72;3.22;;;17.40;99.90;;;;;;5073105;28;20060;-51
2023/10/11 00:08:08;;;;;;;7.97;3.55;;;17.30;99.90;;;;;;5072691;28;20047;-52
2023/10/11 00:10:43;;;;;;;8.02;3.20;;;17.30;99.90;;;;;;5072523;28;20028;-54
2023/10/11 00:13:15;;;;;;;7.70;2.60;;;17.30;99.90;;;;;;5072611;28;20028;-53
2023/10/11 00:15:53;;;;;;;9.50;3.10;;;17.20;99.90;;;;;;5072991;28;20146;-52
2023/10/11 00:18:21;;;;;;;11.38;3.03;;;17.20;99.90;;;;;;5072768;28;20396;-52
2023/10/11 00:20:51;;;;;;;6.75;3.47;;;17.20;99.90;;;;;;5072904;28;20381;-53
2023/10/11 00:23:21;;;;;;;9.05;3.28;;;17.20;99.90;;;;;;5072588;28;20404;-55
2023/10/11 00:25:49;;;;;;;5.70;2.63;;;17.10;99.90;;;;;;5072809;28;20058;-55
2023/10/11 00:28:15;;;;;;;;;;;17.00;99.90;;;;;;5073322;28;20032;-51
2023/10/11 00:30:46;;;;;;;9.32;3.15;;;17.00;99.90;;;;;;5054473;28;19909;-51
2023/10/11 00:33:12;;;;;;;7.10;2.95;;;17.00;99.90;;;;;;5073039;28;20393;-49
2023/10/11 00:35:47;;;;;;;7.97;3.25;;;17.00;99.90;;;;;;5055371;28;20028;-51
2023/10/11 00:38:19;;;;;;;6.50;2.92;;;16.90;99.90;;;;;;5072647;28;20043;-51
2023/10/11 00:41:01;;;;;;;5.93;3.00;;;16.90;99.90;;;;;;5054084;28;20078;-50
2023/10/11 00:43:38;;;;;;;8.90;3.45;;;16.90;99.90;;;;;;5054491;28;20060;-50
2023/10/11 00:46:14;;;;;;;5.68;2.80;;;16.90;99.90;;;;;;5038470;28;20029;-52
2023/10/11 00:51:29;;;;;;;9.57;3.03;;;16.90;99.90;;;;;;5072383;28;20047;-54
2023/10/11 00:53:56;;;;;;;7.10;3.03;;;16.80;99.90;;;;;;5054243;28;20106;-51
2023/10/11 00:56:26;;;;;;;9.20;3.28;;;16.80;99.90;;;;;;5054470;28;20082;-53
2023/10/11 00:58:55;;;;;;;7.25;3.33;;;16.80;99.90;;;;;;5072115;28;20082;-55
2023/10/11 01:01:22;;;;;;;8.87;3.20;;;16.80;99.90;;;;;;5072356;28;20416;-55
2023/10/11 01:03:48;;;;;;;7.15;3.10;;;16.80;99.90;;;;;;5054031;28;20487;-54
2023/10/11 01:06:14;;;;;;;10.18;3.70;;;16.80;99.90;;;;;;5056871;28;20032;-53
2023/10/11 01:08:40;;;;;;;11.63;3.13;;;16.80;99.90;;;;;;5076044;28;20489;-50
2023/10/11 01:11:08;;;;;;;9.82;3.05;;;16.70;99.90;;;;;;5058431;28;20548;-52
2023/10/11 01:13:33;;;;;;;11.13;3.22;;;16.70;99.90;;;;;;5057810;28;20029;-55
2023/10/11 01:16:00;;;;;;;6.32;2.75;;;16.70;99.90;;;;;;5058579;28;20093;-52
2023/10/11 01:18:27;;;;;;;10.20;3.55;;;16.70;99.90;;;;;;5075366;28;20059;-52
2023/10/11 01:20:52;;;;;;;9.05;3.22;;;16.70;99.90;;;;;;5057517;28;20033;-53
2023/10/11 01:23:18;;;;;;;11.63;3.10;;;16.70;99.90;;;;;;5041032;28;20031;-52
2023/10/11 01:25:43;;;;;;;8.60;3.25;;;16.70;99.90;;;;;;5057533;28;20504;-53
2023/10/11 01:28:09;;;;;;;7.20;3.17;;;16.60;99.90;;;;;;5057795;28;20082;-50
2023/10/11 01:30:35;;;;;;;9.00;3.15;;;16.70;99.90;;;;;;5057770;28;20033;-51
2023/10/11 01:33:00;;;;;;;7.45;2.95;;;16.60;99.90;;;;;;5057822;28;20067;-53
2023/10/11 01:35:35;;;;;;;9.07;3.35;;;16.70;99.90;;;;;;5057914;28;20055;-50
2023/10/11 01:38:04;;;;;;;9.38;3.05;;;16.70;99.90;;;;;;5057518;28;20028;-52
2023/10/11 01:40:32;;;;;;;7.97;2.97;;;16.60;99.90;;;;;;5057540;28;20051;-54
2023/10/11 01:42:59;;;;;;;8.25;3.13;;;16.70;99.90;;;;;;5057486;28;20040;-54
2023/10/11 01:45:24;;;;;;;7.82;2.63;;;16.70;99.90;;;;;;5057355;28;20024;-52
2023/10/11 01:47:56;;;;;;;7.80;3.10;;;16.60;99.90;;;;;;5075283;28;20040;-50
2023/10/11 01:50:22;;;;;;;7.68;3.00;;;16.70;99.90;;;;;;5057176;28;20024;-53
2023/10/11 01:52:48;;;;;;;11.25;3.15;;;16.70;99.90;;;;;;5056724;28;20029;-53
2023/10/11 01:55:14;;;;;;;5.95;2.83;;;16.60;99.90;;;;;;5074996;28;20142;-50
2023/10/11 01:57:48;;;;;;;7.50;3.10;;;16.60;99.90;;;;;;5057219;28;20028;-54
2023/10/11 02:00:24;;;;;;;9.88;3.15;;;16.60;99.90;;;;;;5040905;28;20032;-54
2023/10/11 02:02:55;;;;;;;8.48;2.90;;;16.60;99.90;;;;;;5074952;28;20398;-55
2023/10/11 02:05:22;;;;;;;6.82;3.10;;;16.60;99.90;;;;;;5056779;28;20039;-55
2023/10/11 02:07:48;;;;;;;8.02;3.22;;;16.60;99.90;;;;;;5056989;28;20033;-55
2023/10/11 02:10:13;;;;;;;6.05;2.67;;;16.60;99.90;;;;;;5056608;28;20107;-53
2023/10/11 02:12:46;;;;;;;7.47;3.05;;;16.60;99.90;;;;;;5056505;28;20554;-54
2023/10/11 02:15:21;;;;;;;11.93;3.30;;;16.60;99.90;;;;;;5057127;28;20029;-54
2023/10/11 02:17:54;;;;;;;9.23;2.83;;;16.60;99.90;;;;;;5055539;28;20455;-53
2023/10/11 02:20:22;;;;;;;7.05;2.88;;;16.60;99.90;;;;;;5057213;28;20032;-55
2023/10/11 02:22:52;;;;;;;6.72;2.88;;;16.50;99.90;;;;;;5074515;28;20477;-53
2023/10/11 02:25:24;;;;;;;10.07;3.13;;;16.60;99.90;;;;;;5075012;28;20040;-52
2023/10/11 02:27:54;;;;;;;6.97;2.83;;;16.50;99.90;;;;;;5074665;28;20043;-51
2023/10/11 02:30:24;;;;;;;12.95;4.03;;;16.50;99.90;;;;;;5074774;28;20040;-54
2023/10/11 02:32:51;;;;;;;6.18;2.80;;;16.50;99.90;;;;;;5074283;28;20475;-54
2023/10/11 02:35:20;;;;;;;7.30;3.78;;;16.50;99.90;;;;;;5074853;28;20025;-54
2023/10/11 02:37:46;;;;;;;;;;;16.50;99.90;;;;;;5040533;28;20036;-52
2023/10/11 02:40:16;;;;;;;8.10;2.78;;;16.50;99.90;;;;;;5056507;28;20141;-54
2023/10/11 02:42:46;;;;;;;8.80;2.90;;;16.40;99.90;;;;;;5074162;28;20366;-54
2023/10/11 02:45:13;;;;;;;7.13;3.00;;;16.40;99.90;;;;;;5056542;28;20047;-51
2023/10/11 02:47:41;;;;;;;8.70;3.20;;;16.40;99.90;;;;;;5074307;28;20078;-50
2023/10/11 02:50:10;;;;;;;8.00;3.38;;;16.40;99.90;;;;;;5074776;28;20029;-53
2023/10/11 02:52:36;;;;;;;7.15;2.88;;;16.40;99.90;;;;;;5074132;28;20070;-51
2023/10/11 02:55:13;;;;;;;6.75;2.85;;;16.40;99.90;;;;;;5074426;28;20020;-54
2023/10/11 02:57:42;;;;;;;9.07;2.90;;;16.40;99.90;;;;;;5056777;28;20088;-52
2023/10/11 03:00:21;;;;;;;9.10;3.42;;;16.30;99.90;;;;;;5056277;28;20128;-54
2023/10/11 03:02:54;;;;;;;8.70;3.05;;;16.30;99.90;;;;;;5056510;28;20036;-54
2023/10/11 03:05:27;;;;;;;8.55;3.08;;;16.30;99.90;;;;;;5056090;28;20024;-52
2023/10/11 03:07:56;;;;;;;9.40;3.17;;;16.30;99.90;;;;;;5056353;28;20040;-49
2023/10/11 03:10:22;;;;;;;9.48;2.75;;;16.30;99.90;;;;;;5056210;28;20527;-52
2023/10/11 03:12:51;;;;;;;9.00;2.97;;;16.30;99.90;;;;;;5056025;28;20021;-52
2023/10/11 03:15:19;;;;;;;9.15;3.00;;;16.30;99.90;;;;;;5073961;28;20500;-50
2023/10/11 03:17:52;;;;;;;9.05;2.83;;;16.30;99.90;;;;;;5074280;28;20028;-54
2023/10/11 03:20:35;;;;;;;11.05;2.90;;;16.30;99.90;;;;;;5073520;28;20071;-54
2023/10/11 03:23:04;;;;;;;6.57;3.08;;;16.30;99.90;;;;;;5073470;28;20037;-52
2023/10/11 03:25:32;;;;;;;;;;;16.30;99.90;;;;;;5074111;28;20040;-52
2023/10/11 03:27:57;;;;;;;6.85;2.78;;;16.30;99.90;;;;;;5072694;28;19965;-53
2023/10/11 03:30:24;;;;;;;10.07;3.15;;;16.20;99.90;;;;;;5073164;28;20040;-50
2023/10/11 03:32:50;;;;;;;8.02;3.55;;;16.20;99.90;;;;;;5055321;28;20082;-52
2023/10/11 03:35:18;;;;;;;8.73;3.08;;;16.20;99.90;;;;;;5073527;28;20051;-52
2023/10/11 03:37:57;;;;;;;6.43;2.45;;;16.20;99.90;;;;;;5073382;28;20131;-53
2023/10/11 03:40:34;;;;;;;8.35;3.38;;;16.10;99.90;;;;;;5073156;28;20154;-54
2023/10/11 03:43:11;;;;;;;11.48;3.38;;;16.10;99.90;;;;;;5073071;28;20117;-53
2023/10/11 03:45:39;;;;;;;7.40;3.00;;;16.10;99.90;;;;;;5073357;28;20036;-53
2023/10/11 03:48:09;;;;;;;7.70;3.20;;;16.10;99.90;;;;;;5073430;28;20052;-54
2023/10/11 03:50:37;;;;;;;13.13;2.97;;;16.10;99.90;;;;;;5055154;28;20089;-54
2023/10/11 03:53:10;;;;;;;7.68;3.00;;;16.10;99.90;;;;;;5073061;28;20071;-54
2023/10/11 03:55:46;;;;;;;8.95;3.70;;;16.10;99.90;;;;;;5073616;28;20037;-53
2023/10/11 03:58:32;;;;;;;6.78;2.80;;;16.10;99.90;;;;;;5073268;28;20108;-54
2023/10/11 04:01:23;;;;;;;7.15;3.35;;;16.10;99.90;;;;;;5055429;28;20028;-51
2023/10/11 04:03:50;;;;;;;7.47;3.10;;;16.10;99.90;;;;;;5055388;28;20032;-53
2023/10/11 04:06:22;;;;;;;7.53;3.10;;;16.10;99.90;;;;;;5073566;28;20149;-51
2023/10/11 04:08:55;;;;;;;8.60;2.95;;;16.10;99.90;;;;;;5073232;28;20094;-53
2023/10/11 04:11:31;;;;;;;7.47;2.70;;;16.10;99.90;;;;;;5073185;28;20039;-53
2023/10/11 04:13:57;;;;;;;10.38;3.17;;;16.10;99.90;;;;;;5072817;28;20489;-50
2023/10/11 04:16:23;;;;;;;7.07;2.95;;;16.10;99.90;;;;;;5073195;28;20032;-52
2023/10/11 04:18:52;;;;;;;7.57;2.88;;;16.00;99.90;;;;;;5072869;28;20040;-52
2023/10/11 04:23:55;;;;;;;9.35;3.13;;;16.10;99.90;;;;;;5072948;28;20039;-55
2023/10/11 04:26:26;;;;;;;8.27;3.08;;;16.10;99.90;;;;;;5072700;28;20036;-52
2023/10/11 04:28:52;;;;;;;7.55;2.70;;;16.10;99.90;;;;;;5072679;28;20032;-51
2023/10/11 04:31:36;;;;;;;10.48;3.30;;;16.10;99.90;;;;;;5054718;28;20039;-53
2023/10/11 04:34:11;;;;;;;6.20;2.88;;;16.10;99.90;;;;;;5072721;28;20032;-51
2023/10/11 04:36:42;;;;;;;7.05;3.17;;;16.10;99.90;;;;;;5072812;28;20048;-53
2023/10/11 04:39:16;;;;;;;6.45;3.03;;;16.10;99.90;;;;;;5072436;28;20083;-52
2023/10/11 04:41:49;;;;;;;9.50;3.38;;;16.20;99.90;;;;;;5058311;28;20032;-54
2023/10/11 04:44:17;;;;;;;7.15;3.13;;;16.20;99.90;;;;;;5076437;28;20413;-52
2023/10/11 04:46:44;;;;;;;7.30;2.88;;;16.20;99.90;;;;;;5076570;28;20028;-51
2023/10/11 04:49:18;;;;;;;8.10;3.10;;;16.20;99.90;;;;;;5076195;28;20029;-54
2023/10/11 04:51:46;;;;;;;8.40;2.83;;;16.20;99.90;;;;;;5058642;28;20039;-51
2023/10/11 04:54:18;;;;;;;7.30;3.03;;;16.20;99.90;;;;;;5076839;28;20107;-53
2023/10/11 04:59:59;;;;;;;6.60;2.90;;;16.20;99.90;;;;;;5076540;28;20063;-54
2023/10/11 05:02:16;;;;;;;9.90;3.30;;;16.20;99.90;;;;;;5066020;28;20086;-54
2023/10/11 05:04:44;;;;;;;7.65;3.22;;;16.20;99.90;;;;;;5076559;28;20524;-53
2023/10/11 05:07:10;;;;;;;11.38;3.47;;;16.20;99.90;;;;;;5076665;28;20035;-51
2023/10/11 05:09:40;;;;;;;7.55;3.22;;;16.20;99.90;;;;;;5076145;28;20032;-55
2023/10/11 05:12:12;;;;;;;7.88;2.88;;;16.20;99.90;;;;;;5076239;28;20031;-51
2023/10/11 05:14:40;;;;;;;8.27;3.17;;;16.20;99.90;;;;;;5076065;28;20051;-52
2023/10/11 05:19:47;;;;;;;7.30;2.72;;;16.20;99.90;;;;;;5075968;28;20041;-52
2023/10/11 05:32:41;;;;;;;19.13;7.30;;;16.20;99.90;;;;;;5075488;28;20028;-55
2023/10/11 05:51:30;;;;;;;9.32;2.88;;;16.10;99.90;;;;;;5075529;28;20056;-50
2023/10/11 05:53:59;;;;;;;9.10;3.17;;;16.20;99.90;;;;;;5075465;28;20098;-53
2023/10/11 05:56:25;;;;;;;8.07;2.70;;;16.10;99.90;;;;;;5076105;28;20024;-52
2023/10/11 05:58:52;;;;;;;9.15;3.25;;;16.10;99.90;;;;;;5075682;28;20431;-55
2023/10/11 06:01:22;;;;;;;8.60;3.22;;;16.20;99.90;;;;;;5075604;28;20059;-51
2023/10/11 06:03:51;;;;;;;8.70;3.10;;;16.20;99.90;;;;;;5075701;28;20448;-52
2023/10/11 06:06:38;;;;;;;8.75;3.15;;;16.20;99.90;;;;;;5075094;28;20041;-50
2023/10/11 06:09:05;;;;;;;8.52;3.00;;;16.30;99.90;;;;;;5074721;28;20033;-52
2023/10/11 06:11:37;;;;;;;8.90;2.80;;;16.30;99.90;;;;;;5075139;28;20103;-49
2023/10/11 06:14:07;;;;;;;8.27;2.60;;;16.30;99.90;;;;;;5075534;28;20085;-50
2023/10/11 06:16:37;;;;;;;7.60;2.90;;;16.30;99.90;;;;;;5075286;28;20107;-50
2023/10/11 06:19:16;;;;;;;6.07;2.55;;;16.40;99.90;;;;;;5056821;28;20040;-54
2023/10/11 06:21:56;;;;;;;9.23;2.67;;;16.40;99.90;;;;;;5075044;28;20119;-52
2023/10/11 06:24:32;;;;;;;7.65;3.13;;;16.40;99.90;;;;;;5074500;28;20055;-50
2023/10/11 06:28:09;;;;;;;7.10;2.58;;;16.40;99.90;;;;;;5074846;28;20032;-51
2023/10/11 06:29:57;;;;;;;8.07;2.90;;;16.50;99.90;;;;;;5074522;28;20032;-50
2023/10/11 06:32:24;;;;;;;10.93;3.28;;;16.50;99.90;;;;;;5074509;28;20103;-54
2023/10/11 06:34:51;;;;;;;10.57;3.50;;;16.50;99.90;;;;;;5074970;28;20528;-52
2023/10/11 06:37:19;;;;;;;10.32;2.63;;;16.50;99.90;;;;;;5075284;28;20357;-52
2023/10/11 06:42:13;;;;;;;9.52;2.92;;;16.50;99.90;;;;;;5074396;28;20033;-54
2023/10/11 06:44:40;;;;;;;8.10;3.08;;;16.60;99.90;;;;;;5074703;28;20036;-52
2023/10/11 06:47:06;;;;;;;13.70;3.75;;;16.60;99.90;;;;;;5074571;28;20044;-54
2023/10/11 06:49:40;;;;;;;6.88;2.92;;;16.60;99.90;;;;;;5074146;28;20071;-51
2023/10/11 06:52:11;;;;;;;7.55;3.20;;;16.60;99.90;;;;;;5074226;28;20357;-54
2023/10/11 06:54:45;;;;;;;9.70;3.10;;;16.60;99.90;;;;;;5074449;28;20067;-52
2023/10/11 06:57:16;;;;;;;6.90;2.97;;;16.60;99.90;;;;;;5074087;28;20425;-51
2023/10/11 06:59:42;;;;;;;10.45;3.45;;;16.60;99.90;;;;;;5074073;28;20038;-54
2023/10/11 07:02:17;;;;;;;8.63;3.33;;;16.80;99.90;;;;;;5074216;28;20036;-52
2023/10/11 07:04:50;;;;;;;9.38;2.90;;;16.80;99.90;;;;;;5074092;28;20029;-52
2023/10/11 07:07:17;;;;;;;37.85;18.20;;;16.80;99.90;;;;;;5073867;28;20485;-49
2023/10/11 07:09:56;;;;;;;21.75;10.70;;;16.90;99.90;;;;;;5055958;28;20420;-54
2023/10/11 07:12:28;;;;;;;9.10;3.67;;;16.90;99.90;;;;;;5074237;28;20047;-53
2023/10/11 07:14:57;;;;;;;7.65;3.15;;;17.00;99.90;;;;;;5073970;28;20074;-51
2023/10/11 07:17:32;;;;;;;9.02;2.80;;;17.00;99.90;;;;;;5074086;28;20082;-52
2023/10/11 07:19:57;;;;;;;5.75;2.50;;;17.10;99.90;;;;;;5073581;28;20032;-54
2023/10/11 07:22:26;;;;;;;7.65;3.10;;;17.10;99.90;;;;;;5073432;28;20074;-51
2023/10/11 07:25:18;;;;;;;6.05;2.80;;;17.20;99.90;;;;;;5073464;28;20032;-53
2023/10/11 07:27:43;;;;;;;8.20;2.70;;;17.20;99.90;;;;;;5073122;28;20040;-51
2023/10/11 07:30:16;;;;;;;8.25;3.10;;;17.30;99.90;;;;;;5073491;28;20040;-55
2023/10/11 07:32:42;;;;;;;7.18;2.80;;;17.30;99.90;;;;;;5073919;28;20033;-55
2023/10/11 07:35:18;;;;;;;8.73;3.20;;;17.40;99.90;;;;;;5074040;28;20093;-52
2023/10/11 07:37:44;;;;;;;10.63;3.22;;;17.50;99.90;;;;;;5073859;28;20072;-53
2023/10/11 07:40:13;;;;;;;7.63;3.45;;;17.60;99.90;;;;;;5073934;28;20498;-51
2023/10/11 07:42:39;;;;;;;7.43;2.97;;;17.60;99.90;;;;;;5073395;28;20043;-52
2023/10/11 07:45:12;;;;;;;12.85;4.13;;;17.60;99.90;;;;;;5073422;28;20024;-54
2023/10/11 07:47:45;;;;;;;7.38;3.30;;;17.70;99.90;;;;;;5073654;28;20032;-52
2023/10/11 07:50:14;;;;;;;6.85;3.03;;;17.80;99.90;;;;;;5073467;28;20032;-50
2023/10/11 07:52:42;;;;;;;5.60;2.75;;;17.90;99.90;;;;;;5073097;28;20044;-51
2023/10/11 07:55:12;;;;;;;6.85;2.88;;;17.90;99.90;;;;;;5055522;28;20039;-51
2023/10/11 07:57:44;;;;;;;8.70;2.75;;;18.00;99.90;;;;;;5073112;28;20025;-51
2023/10/11 08:00:17;;;;;;;6.85;2.50;;;18.10;99.90;;;;;;5073032;28;20056;-53
2023/10/11 08:03:05;;;;;;;8.43;3.10;;;18.20;99.90;;;;;;5073164;28;20059;-54
2023/10/11 08:05:45;;;;;;;9.88;3.58;;;18.20;99.90;;;;;;5073381;28;20036;-53
2023/10/11 08:08:13;;;;;;;5.65;2.42;;;18.30;99.90;;;;;;5073425;28;20033;-54
2023/10/11 08:10:44;;;;;;;8.25;2.78;;;18.40;99.90;;;;;;5072969;28;20039;-55
2023/10/11 08:13:23;;;;;;;7.07;2.50;;;18.50;99.90;;;;;;5073789;28;20024;-55
2023/10/11 08:15:51;;;;;;;;;;;18.50;99.90;;;;;;5078113;28;20029;-54
2023/10/11 08:18:16;;;;;;;6.18;2.67;;;18.60;99.90;;;;;;5077571;28;20309;-55
2023/10/11 08:20:43;;;;;;;8.75;3.00;;;18.70;99.90;;;;;;5076748;28;20067;-56
2023/10/11 08:23:08;;;;;;;8.07;2.70;;;18.80;99.90;;;;;;5076546;28;20115;-55
2023/10/11 08:25:39;;;;;;;7.50;3.65;;;19.00;99.90;;;;;;5076623;28;20064;-56
2023/10/11 08:28:12;;;;;;;6.85;3.20;;;19.00;99.90;;;;;;5076687;28;20552;-56
2023/10/11 08:30:40;;;;;;;6.68;2.88;;;19.20;99.90;;;;;;5076355;28;20036;-53
2023/10/11 08:33:07;;;;;;;8.65;3.08;;;19.20;99.90;;;;;;5076157;28;20492;-54
2023/10/11 08:35:32;;;;;;;8.40;3.03;;;19.30;99.90;;;;;;5076393;28;20287;-52
2023/10/11 08:38:04;;;;;;;6.68;2.97;;;19.50;99.90;;;;;;5076033;28;20098;-52
2023/10/11 08:40:37;;;;;;;9.43;3.08;;;19.50;99.90;;;;;;5075865;28;20058;-53
2023/10/11 08:43:03;;;;;;;6.53;3.05;;;19.60;99.90;;;;;;5076128;28;20037;-53
2023/10/11 08:45:49;;;;;;;5.32;2.53;;;19.80;99.90;;;;;;5076095;28;20554;-54
2023/10/11 08:48:15;;;;;;;9.80;4.13;;;19.80;99.90;;;;;;5076084;28;20040;-54
2023/10/11 08:50:51;;;;;;;9.63;3.00;;;20.10;99.90;;;;;;5075635;28;20032;-55
2023/10/11 08:53:21;;;;;;;7.50;3.28;;;20.10;99.90;;;;;;5075739;28;20040;-55
2023/10/11 08:55:56;;;;;;;8.90;3.55;;;20.20;99.90;;;;;;5075730;28;20089;-54
2023/10/11 08:58:27;;;;;;;10.00;3.08;;;20.40;99.90;;;;;;5075602;28;20039;-53
2023/10/11 09:00:58;;;;;;;8.48;2.78;;;20.60;99.90;;;;;;5075745;28;20504;-53
2023/10/11 09:03:40;;;;;;;11.10;3.55;;;20.60;99.90;;;;;;5075305;28;20040;-53
2023/10/11 09:06:22;;;;;;;7.47;2.78;;;20.70;99.90;;;;;;5075603;28;20064;-53
2023/10/11 09:08:49;;;;;;;8.95;3.45;;;20.90;99.90;;;;;;5075431;28;20119;-54
2023/10/11 09:11:32;;;;;;;5.95;2.90;;;21.00;99.90;;;;;;5075394;28;20028;-50
2023/10/11 09:14:23;;;;;;;7.13;3.38;;;21.20;99.90;;;;;;5075092;28;20071;-54
2023/10/11 09:16:57;;;;;;;10.52;3.47;;;21.30;99.90;;;;;;5075725;28;20431;-55
2023/10/11 09:19:26;;;;;;;7.30;3.10;;;21.40;99.90;;;;;;5074973;28;20032;-54
2023/10/11 09:22:18;;;;;;;11.25;3.20;;;21.50;99.90;;;;;;5075121;28;20043;-55
2023/10/11 09:24:44;;;;;;;6.55;2.50;;;21.70;99.90;;;;;;5074957;28;20082;-54
2023/10/11 09:27:18;;;;;;;6.43;2.70;;;21.80;99.90;;;;;;5074076;28;20044;-54
2023/10/11 09:29:46;;;;;;;6.57;3.00;;;21.90;99.90;;;;;;5056695;28;20037;-52
2023/10/11 09:32:19;;;;;;;7.22;2.63;;;22.10;99.90;;;;;;5075095;28;20033;-50
2023/10/11 09:34:51;;;;;;;8.38;3.28;;;22.40;99.90;;;;;;5075493;28;20029;-51
2023/10/11 09:37:20;;;;;;;9.27;3.08;;;23.00;99.80;;;;;;5075505;28;20485;-50
2023/10/11 09:39:46;;;;;;;6.07;3.00;;;23.70;98.90;;;;;;5075450;28;20054;-52
2023/10/11 09:42:14;;;;;;;6.72;2.55;;;24.40;97.50;;;;;;5075138;28;20044;-51
2023/10/11 09:44:43;;;;;;;5.60;2.30;;;24.80;96.10;;;;;;5075368;28;20044;-50
2023/10/11 09:47:16;;;;;;;8.45;2.70;;;25.00;95.70;;;;;;5075107;28;20071;-51
2023/10/11 09:49:42;;;;;;;5.70;2.65;;;25.30;95.50;;;;;;5075203;28;20040;-50
2023/10/11 09:52:17;;;;;;;7.75;3.20;;;25.70;94.60;;;;;;5074955;28;20028;-52
2023/10/11 09:54:43;;;;;;;7.18;2.50;;;25.60;94.10;;;;;;5075215;28;20029;-54
2023/10/11 09:57:13;;;;;;;5.97;2.85;;;26.10;93.90;;;;;;5075025;28;20484;-52
2023/10/11 09:59:47;;;;;;;9.10;2.67;;;26.70;93.20;;;;;;5074904;28;20278;-50
2023/10/11 10:02:28;;;;;;;8.07;2.42;;;27.20;91.90;;;;;;5074627;28;20039;-51
2023/10/11 10:04:55;;;;;;;7.13;2.90;;;27.50;90.70;;;;;;5075416;28;20032;-52
2023/10/11 10:10:11;;;;;;;6.63;2.80;;;27.30;90.90;;;;;;5074858;28;20064;-52
2023/10/11 10:12:40;;;;;;;7.63;2.53;;;26.80;90.00;;;;;;5074604;28;20066;-51
2023/10/11 10:15:23;;;;;;;11.77;2.60;;;26.40;91.60;;;;;;5074605;28;20024;-49
2023/10/11 10:18:00;;;;;;;8.82;2.90;;;25.90;91.40;;;;;;5075191;28;20081;-50
2023/10/11 10:20:43;;;;;;;5.00;2.35;;;25.40;92.70;;;;;;5074633;28;20111;-49
2023/10/11 10:23:15;;;;;;;5.63;3.08;;;25.00;92.90;;;;;;5074001;28;20064;-50
2023/10/11 10:26:13;;;;;;;7.75;2.97;;;24.60;93.20;;;;;;5074415;28;20040;-50
2023/10/11 10:28:42;;;;;;;13.60;3.10;;;24.40;93.70;;;;;;5074300;28;20449;-54
2023/10/11 10:31:20;;;;;;;9.93;2.83;;;24.00;94.30;;;;;;5074411;28;20078;-51
2023/10/11 10:33:50;;;;;;;9.30;2.63;;;24.00;94.60;;;;;;5074334;28;20411;-49
2023/10/11 10:36:21;;;;;;;10.80;3.25;;;23.80;95.00;;;;;;5074444;28;20059;-53
2023/10/11 10:41:39;;;;;;;7.65;2.65;;;23.70;95.30;;;;;;5074115;28;20028;-50
2023/10/11 10:44:05;;;;;;;8.60;2.53;;;23.40;95.60;;;;;;5074298;28;20033;-52
2023/10/11 10:46:34;;;;;;;8.05;2.70;;;23.20;96.50;;;;;;5074583;28;20098;-52
2023/10/11 10:49:03;;;;;;;7.05;2.65;;;23.20;96.50;;;;;;5055974;28;20442;-49
2023/10/11 10:51:35;;;;;;;6.72;2.88;;;23.10;96.90;;;;;;5074060;28;20036;-53
2023/10/11 10:54:14;;;;;;;4.55;2.38;;;23.10;97.30;;;;;;5074186;28;20041;-55
2023/10/11 10:56:43;;;;;;;;;;;23.10;97.60;;;;;;5075024;28;20031;-53
2023/10/11 10:59:12;;;;;;;;;;;23.20;97.30;;;;;;5074902;28;20324;-51
2023/10/11 11:01:38;;;;;;;8.65;2.92;;;23.20;97.80;;;;;;5074074;28;19909;-50
2023/10/11 11:04:08;;;;;;;6.55;3.35;;;23.30;97.80;;;;;;5073676;28;20067;-55
2023/10/11 11:06:51;;;;;;;6.82;2.33;;;23.40;98.00;;;;;;5073478;28;20547;-54
2023/10/11 11:09:27;;;;;;;9.07;2.70;;;23.40;98.00;;;;;;5073285;28;20120;-50
2023/10/11 11:11:57;;;;;;;10.23;2.95;;;23.40;98.20;;;;;;5073138;28;20516;-55
2023/10/11 11:14:24;;;;;;;12.13;2.85;;;23.60;98.20;;;;;;5072909;28;20032;-54
2023/10/11 11:17:00;;;;;;;7.78;2.58;;;23.60;97.80;;;;;;5072982;28;20037;-54
2023/10/11 11:19:26;;;;;;;8.90;2.65;;;23.80;97.90;;;;;;5072911;28;20303;-55
2023/10/11 11:22:19;;;;;;;7.68;2.80;;;23.80;98.00;;;;;;5072876;28;20445;-55
2023/10/11 11:24:45;;;;;;;7.43;2.55;;;24.10;98.30;;;;;;5072780;28;20029;-51
2023/10/11 11:27:25;;;;;;;13.60;2.60;;;24.20;97.40;;;;;;5072989;28;20085;-50
2023/10/11 11:29:54;;;;;;;6.05;2.50;;;24.30;97.70;;;;;;5072774;28;20044;-54
2023/10/11 11:32:41;;;;;;;11.88;3.10;;;24.40;97.90;;;;;;5072957;28;20469;-55
2023/10/11 11:35:51;;;;;;;7.28;2.78;;;24.60;97.90;;;;;;5073080;28;20042;-55
2023/10/11 11:38:02;;;;;;;5.05;2.13;;;25.00;96.90;;;;;;5064557;28;20045;-55
2023/10/11 11:40:36;;;;;;;7.68;2.38;;;25.20;96.40;;;;;;5073112;28;20115;-52
2023/10/11 11:43:03;;;;;;;8.98;3.75;;;25.20;96.50;;;;;;5054910;28;20058;-54
2023/10/11 11:45:35;;;;;;;7.90;3.00;;;25.30;96.40;;;;;;5073034;28;20041;-55
2023/10/11 11:48:05;;;;;;;6.50;2.60;;;25.50;96.50;;;;;;5072933;28;20054;-55
2023/10/11 11:50:36;;;;;;;6.18;2.30;;;25.90;96.40;;;;;;5072370;28;20115;-55
2023/10/11 11:53:03;;;;;;;13.50;3.00;;;26.30;95.40;;;;;;5072808;28;20489;-55
2023/10/11 11:55:29;;;;;;;8.35;2.90;;;26.50;95.50;;;;;;5072922;28;20081;-56
2023/10/11 11:57:55;;;;;;;8.15;2.90;;;26.80;95.30;;;;;;5072587;28;20028;-54
2023/10/11 12:02:54;;;;;;;11.85;3.13;;;26.20;95.70;;;;;;5072762;28;20062;-54
2023/10/11 12:05:20;;;;;;;10.18;3.88;;;25.80;95.80;;;;;;5073108;28;20040;-54
2023/10/11 12:07:48;;;;;;;5.13;2.38;;;25.50;96.50;;;;;;5073253;28;20028;-53
2023/10/11 12:10:23;;;;;;;;;;;25.50;96.80;;;;;;5073832;28;20033;-55
2023/10/11 12:12:54;;;;;;;8.50;2.78;;;25.30;96.70;;;;;;5072530;28;19954;-53
2023/10/11 12:15:20;;;;;;;8.35;3.20;;;25.20;97.10;;;;;;5072949;28;20063;-52
2023/10/11 12:17:47;;;;;;;9.70;2.85;;;25.20;97.50;;;;;;5072860;28;20021;-53
2023/10/11 12:20:15;;;;;;;8.73;3.22;;;25.20;97.30;;;;;;5072718;28;20032;-53
2023/10/11 12:22:44;;;;;;;6.50;2.80;;;25.20;97.60;;;;;;5055321;28;20427;-55
2023/10/11 12:25:11;;;;;;;8.68;2.80;;;25.20;97.80;;;;;;5072575;28;20063;-54
2023/10/11 12:27:40;;;;;;;8.10;2.40;;;25.20;97.60;;;;;;5072458;28;20028;-54
2023/10/11 12:30:19;;;;;;;11.77;3.38;;;25.30;97.50;;;;;;5072358;28;20035;-54
2023/10/11 12:32:50;;;;;;;7.25;2.75;;;25.20;97.50;;;;;;5072347;28;20039;-52
2023/10/11 12:35:16;;;;;;;8.90;2.80;;;25.20;97.80;;;;;;5072373;28;20020;-54
2023/10/11 12:37:42;;;;;;;8.07;3.08;;;25.00;97.80;;;;;;5072613;28;20032;-51
2023/10/11 12:40:13;;;;;;;7.93;3.10;;;24.90;98.20;;;;;;5072918;28;20025;-54
2023/10/11 12:42:45;;;;;;;7.45;2.97;;;24.80;98.40;;;;;;5072455;28;20114;-52
2023/10/11 12:45:10;;;;;;;8.38;2.85;;;24.80;98.30;;;;;;5072883;28;20036;-51
2023/10/11 12:47:36;;;;;;;9.60;3.20;;;24.80;98.40;;;;;;5054003;28;20039;-51
2023/10/11 12:50:03;;;;;;;7.40;2.70;;;24.70;98.60;;;;;;5071852;28;20036;-55
2023/10/11 12:52:30;;;;;;;20.02;3.35;;;24.70;98.10;;;;;;5072417;28;20082;-55
2023/10/11 12:55:02;;;;;;;10.50;3.78;;;24.90;98.30;;;;;;5072653;28;20031;-50
2023/10/11 12:57:28;;;;;;;8.02;2.58;;;25.00;98.00;;;;;;5072447;28;20032;-54
2023/10/11 12:59:54;;;;;;;10.63;3.47;;;25.10;97.60;;;;;;5054230;28;20029;-55
2023/10/11 13:02:30;;;;;;;9.75;2.67;;;25.10;97.90;;;;;;5056850;28;20116;-54
2023/10/11 13:04:58;;;;;;;8.80;2.75;;;25.00;97.60;;;;;;5076381;28;20021;-54
2023/10/11 13:07:26;;;;;;;10.48;2.58;;;24.90;97.80;;;;;;5076028;28;20086;-52
2023/10/11 13:09:54;;;;;;;8.05;3.10;;;25.00;98.20;;;;;;5075795;28;20037;-54
2023/10/11 13:12:20;;;;;;;7.40;3.00;;;25.10;97.70;;;;;;5075973;28;20062;-53
2023/10/11 13:14:45;;;;;;;8.63;3.08;;;25.10;97.80;;;;;;5075998;28;20112;-51
2023/10/11 13:17:15;;;;;;;9.77;3.05;;;25.00;97.90;;;;;;5057675;28;20031;-55
2023/10/11 13:19:43;;;;;;;7.47;2.63;;;25.00;98.00;;;;;;5075441;28;20032;-55
2023/10/11 13:22:12;;;;;;;9.75;2.83;;;25.00;97.90;;;;;;5075873;28;20546;-55
2023/10/11 13:24:38;;;;;;;6.68;2.60;;;25.30;97.50;;;;;;5075870;28;20036;-54
2023/10/11 13:27:07;;;;;;;9.32;3.28;;;25.60;97.10;;;;;;5075578;28;20036;-55
2023/10/11 13:29:32;;;;;;;8.95;3.13;;;25.90;96.80;;;;;;5075259;28;20032;-54
2023/10/11 13:31:58;;;;;;;8.57;3.30;;;25.80;97.00;;;;;;5075604;28;20020;-54
2023/10/11 13:34:34;;;;;;;7.22;2.60;;;25.50;97.00;;;;;;5075522;28;20147;-55
2023/10/11 13:37:00;;;;;;;9.13;2.78;;;25.30;97.30;;;;;;5058343;28;20033;-54
2023/10/11 13:39:38;;;;;;;10.25;3.30;;;25.10;97.80;;;;;;5075219;28;20064;-52
2023/10/11 13:42:04;;;;;;;7.60;2.53;;;24.90;97.90;;;;;;5057333;28;20032;-52
2023/10/11 13:44:33;;;;;;;5.07;2.33;;;24.60;98.60;;;;;;5075239;28;20047;-54
2023/10/11 13:46:59;;;;;;;5.78;2.85;;;24.50;98.60;;;;;;5075623;28;20492;-53
2023/10/11 13:49:26;;;;;;;7.13;3.05;;;24.40;98.90;;;;;;5056704;28;20043;-55
2023/10/11 13:51:59;;;;;;;8.75;2.85;;;24.30;99.00;;;;;;5074885;28;20058;-54
2023/10/11 13:54:51;;;;;;;11.30;3.00;;;24.30;99.60;;;;;;5057127;28;20104;-54
2023/10/11 13:57:18;;;;;;;8.52;3.30;;;24.30;99.50;;;;;;5073728;28;20048;-54